Hauptseite
METAR-TAF:

METAR-TAF

Flughäfen :

Flughafen Alexandros Papadiamantis

Skiathos, Griechenland

Breite: 39-11N, Länge: 023-30E, Höhe: 15 m

Beobachtung

Neuester Wetterbericht von vor 10 Stunden und 55 Minuten, um 11:50 UTC
Wind 10 kt aus Nord/Nordost
Temperatur 15°C
Luftfeuchtigkeit 48%
Luftdruck 1024 hPa
Sichtweite 10 km oder mehr
Leicht bewölkt in der Höhe von 2000 ft

METAR: LGSK 081150Z 02010KT 9999 FEW020 15/04 Q1024

Zeit: 01:45 (22:45 UTC)

Prognose

Neuester Wetterbericht von vor 2 Stunden und 45 Minuten, um 20:00 UTC
Gültige Prognose vom 08 um 21 UTC bis 09 um 06 UTC
Wind 25 kt aus Nordost, Böen bis zu 35 kt
Sichtweite 10 km oder mehr
Leicht bewölkt in der Höhe von 2000 ft
Übergehend zu
vom 09 um 01 UTC bis 09 um 03 UTC
Wind 15 kt aus Nord/Nordost, Böen bis zu 25 kt

TAF: LGSK 082000Z 0821/0906 04025G35KT 9999 FEW020 BECMG 0901/0903 03015G25KT

Wetterbeobachtungen und Prognosen von mehr als 4000 Flughäfen (METAR und TAF Bericht).

Die verfügbaren Stationen werden durch gelbe und rote Markierungen auf der Karte dargestellt.

Führen Sie die Maus auf sie, um den Namen der Station zu sehen.

Darauf klicken, um die Beobachtung von Wetterbeobachtungen und Prognosen zu sehen.

Um die Karte zu ändern : klicken Sie auf den grünen Tasten mit einem schwarzen Kreuz Zum Vergrößern, auf den grünen Button mit einem Gedankenstrich zu verkleinern, oder auf die grünen Pfeile für benachbarte Karten.


METAR-TAF: